Dades meteomassalio
Diari Summary for Octubre 7, 2017 Units:  English    Metric   Both
« Previous Day
Next Day »
Diari Semanal Mensual Anual Personalitzat
  Maxima: Minima: Mijana:
Temperatura: TemperatureC °F 4.4 °F 14.2 °F
Rosada: DewpointC °F -0.1 °F 5.6 °F
Humitat: Humidity % 36 % 58 %
Velocitat del vent: WindSpeedKMH mph 0.0 mph 6.4 mph
Racha vent: WindSpeedGustKMH mph - -
Vent:- - SSW
Pressio: PressurehPa in 1022.6 in -
Pluja: 0.0 in    
Historical Graphs
 
 
Tabular Data for Octubre 7, 2017
Time Temperature Dew Point Pressure Wind Wind Speed Wind Gust Humidity Rainfall Rate (Hourly) solar Conditions
TemperatureC °F DewpointC °F PressurehPa in Calm     Humidity % HourlyPrecipMM in SolarRadiationWatts/m^2 W/m2 Conditions
00:04 15.6 °F 7.3 °F 1023.2 in SSW 20.4 mph 20.4 mph 58 % 0.0 in 0.0 W/m2 CLR
00:08 15.6 °F 7.3 °F 1023.6 in SSW 19.3 mph 19.3 mph 58 % 0.0 in 0.0 W/m2 CLR
00:14 15.6 °F 7.1 °F 1023.6 in South 18.5 mph 18.5 mph 57 % 0.0 in 0.0 W/m2 CLR
00:19 15.6 °F 7.1 °F 1023.6 in SSW 22.2 mph 22.2 mph 57 % 0.0 in 0.0 W/m2 CLR
00:24 15.6 °F 7.3 °F 1023.6 in South 18.5 mph 18.5 mph 58 % 0.0 in 0.0 W/m2 CLR
00:29 15.6 °F 7.3 °F 1023.6 in South 13.0 mph 13.0 mph 58 % 0.0 in 0.0 W/m2 CLR
00:34 15.6 °F 7.6 °F 1023.6 in South 18.5 mph 18.5 mph 59 % 0.0 in 0.0 W/m2 CLR
00:39 15.0 °F 7.1 °F 1023.6 in South 7.4 mph 7.4 mph 59 % 0.0 in 0.0 W/m2 CLR
00:44 15.0 °F 7.3 °F 1023.6 in South 14.8 mph 14.8 mph 60 % 0.0 in 0.0 W/m2 CLR
00:49 15.0 °F 7.3 °F 1023.6 in South 14.8 mph 14.8 mph 60 % 0.0 in 0.0 W/m2 CLR
00:54 15.0 °F 7.3 °F 1023.6 in South 11.1 mph 11.1 mph 60 % 0.0 in 0.0 W/m2 CLR
00:59 14.4 °F 6.8 °F 1023.9 in South 11.3 mph 11.3 mph 60 % 0.0 in 0.0 W/m2 CLR
01:04 14.4 °F 6.8 °F 1023.9 in South 14.8 mph 14.8 mph 60 % 0.0 in 0.0 W/m2 CLR
01:09 14.4 °F 6.5 °F 1023.9 in South 13.0 mph 13.0 mph 59 % 0.0 in 0.0 W/m2 CLR
01:14 14.4 °F 6.5 °F 1023.9 in SSW 14.8 mph 14.8 mph 59 % 0.0 in 0.0 W/m2 CLR
01:19 14.4 °F 6.5 °F 1023.9 in SSE 9.3 mph 9.3 mph 59 % 0.0 in 0.0 W/m2 CLR
01:24 14.4 °F 6.5 °F 1024.3 in South 6.4 mph 6.4 mph 59 % 0.0 in 0.0 W/m2 CLR
01:29 14.4 °F 6.5 °F 1024.3 in SSE 7.4 mph 7.4 mph 59 % 0.0 in 0.0 W/m2 CLR
01:39 13.9 °F 6.2 °F 1023.9 in South 18.5 mph 18.5 mph 60 % 0.0 in 0.0 W/m2 CLR
01:44 13.9 °F 6.0 °F 1023.9 in SSW 20.4 mph 20.4 mph 59 % 0.0 in 0.0 W/m2 CLR
01:49 13.9 °F 6.0 °F 1023.9 in South 16.7 mph 16.7 mph 59 % 0.0 in 0.0 W/m2 CLR
01:54 13.3 °F 5.5 °F 1023.9 in South 25.9 mph 25.9 mph 59 % 0.0 in 0.0 W/m2 CLR
01:59 13.9 °F 6.0 °F 1023.9 in SSW 18.5 mph 18.5 mph 59 % 0.0 in 0.0 W/m2 CLR
02:04 13.9 °F 6.0 °F 1024.3 in SSW 18.5 mph 18.5 mph 59 % 0.0 in 0.0 W/m2 CLR
02:09 13.9 °F 6.0 °F 1024.3 in SSW 17.7 mph 17.7 mph 59 % 0.0 in 0.0 W/m2 CLR
02:14 13.9 °F 6.0 °F 1024.3 in South 16.7 mph 16.7 mph 59 % 0.0 in 0.0 W/m2 CLR
02:19 13.3 °F 5.2 °F 1024.3 in South 13.0 mph 13.0 mph 58 % 0.0 in 0.0 W/m2 CLR
02:24 13.3 °F 5.2 °F 1024.3 in South 18.5 mph 18.5 mph 58 % 0.0 in 0.0 W/m2 CLR
02:29 13.3 °F 5.2 °F 1024.3 in South 9.7 mph 9.7 mph 58 % 0.0 in 0.0 W/m2 CLR
02:34 13.3 °F 5.2 °F 1024.3 in South 11.1 mph 11.1 mph 58 % 0.0 in 0.0 W/m2 CLR
02:39 13.3 °F 5.5 °F 1024.3 in South 5.6 mph 5.6 mph 59 % 0.0 in 0.0 W/m2 CLR
02:44 12.8 °F 4.9 °F 1024.3 in SSE 16.7 mph 16.7 mph 59 % 0.0 in 0.0 W/m2 CLR
02:49 12.8 °F 4.9 °F 1024.3 in SSW 6.4 mph 6.4 mph 59 % 0.0 in 0.0 W/m2 CLR
02:54 12.2 °F 4.4 °F 1024.6 in SW 14.8 mph 14.8 mph 59 % 0.0 in 0.0 W/m2 CLR
02:59 12.2 °F 4.4 °F 1024.3 in South 5.6 mph 5.6 mph 59 % 0.0 in 0.0 W/m2 CLR
03:04 11.7 °F 3.9 °F 1024.3 in South 9.3 mph 9.3 mph 59 % 0.0 in 0.0 W/m2 CLR
03:09 11.7 °F 3.9 °F 1024.3 in SSE 9.7 mph 9.7 mph 59 % 0.0 in 0.0 W/m2 CLR
03:14 11.1 °F 3.6 °F 1024.3 in Calm     60 % 0.0 in 0.0 W/m2 CLR
03:19 11.1 °F 3.9 °F 1024.3 in SSE 5.6 mph   61 % 0.0 in 0.0 W/m2 CLR
03:24 10.6 °F 3.3 °F 1024.3 in Calm     61 % 0.0 in 0.0 W/m2 CLR
03:29 10.0 °F 2.8 °F 1024.3 in Calm     61 % 0.0 in 0.0 W/m2 CLR
03:34 9.4 °F 2.3 °F 1024.3 in Calm     61 % 0.0 in 0.0 W/m2 CLR
03:39 9.4 °F 2.3 °F 1024.3 in South 6.4 mph 6.4 mph 61 % 0.0 in 0.0 W/m2 CLR
03:44 9.4 °F 2.3 °F 1024.3 in South 5.6 mph   61 % 0.0 in 0.0 W/m2 CLR
03:49 8.9 °F 1.8 °F 1024.3 in South 5.6 mph 5.6 mph 61 % 0.0 in 0.0 W/m2 CLR
03:55 8.9 °F 1.8 °F 1024.3 in Calm     61 % 0.0 in 0.0 W/m2 CLR
04:00 8.3 °F 1.2 °F 1024.3 in Calm     61 % 0.0 in 0.0 W/m2 CLR
04:05 8.3 °F 1.2 °F 1024.3 in Calm     61 % 0.0 in 0.0 W/m2 CLR
04:10 8.3 °F 1.2 °F 1024.3 in Calm     61 % 0.0 in 0.0 W/m2 CLR
04:15 7.8 °F 0.9 °F 1024.3 in SSE 3.7 mph   62 % 0.0 in 0.0 W/m2 CLR
04:20 7.8 °F 1.2 °F 1024.3 in Calm     63 % 0.0 in 0.0 W/m2 CLR
04:25 7.8 °F 1.2 °F 1024.3 in Calm     63 % 0.0 in 0.0 W/m2 CLR
04:30 7.8 °F 1.2 °F 1024.3 in Calm     63 % 0.0 in 0.0 W/m2 CLR
04:35 7.2 °F 0.8 °F 1024.3 in Calm     64 % 0.0 in 0.0 W/m2 CLR
04:40 7.2 °F 1.1 °F 1024.3 in Calm     65 % 0.0 in 0.0 W/m2 CLR
04:45 7.2 °F 1.3 °F 1024.3 in Calm     66 % 0.0 in 0.0 W/m2 CLR
04:50 7.2 °F 1.5 °F 1024.3 in Calm     67 % 0.0 in 0.0 W/m2 CLR
04:55 6.7 °F 0.9 °F 1024.3 in Calm     67 % 0.0 in 0.0 W/m2 CLR
05:00 6.7 °F 1.2 °F 1024.3 in Calm     68 % 0.0 in 0.0 W/m2 CLR
05:05 6.7 °F 1.2 °F 1024.3 in Calm     68 % 0.0 in 0.0 W/m2 CLR
05:10 6.7 °F 1.4 °F 1024.3 in Calm     69 % 0.0 in 0.0 W/m2 CLR
05:15 6.7 °F 1.4 °F 1024.3 in Calm     69 % 0.0 in 0.0 W/m2 CLR
05:20 6.7 °F 1.4 °F 1024.6 in Calm     69 % 0.0 in 0.0 W/m2 CLR
05:25 6.7 °F 1.6 °F 1024.6 in Calm     70 % 0.0 in 0.0 W/m2 CLR
05:30 6.1 °F 1.2 °F 1024.6 in Calm     71 % 0.0 in 0.0 W/m2 CLR
05:35 6.1 °F 1.2 °F 1024.6 in Calm     71 % 0.0 in 0.0 W/m2 CLR
05:45 6.1 °F 1.2 °F 1024.9 in Calm     71 % 0.0 in 0.0 W/m2 CLR
05:55 6.1 °F 1.2 °F 1024.9 in Calm     71 % 0.0 in 0.0 W/m2 CLR
06:00 5.6 °F 0.7 °F 1024.9 in South 7.4 mph 7.4 mph 71 % 0.0 in 0.0 W/m2 CLR
06:05 5.6 °F 0.7 °F 1024.9 in South 9.3 mph 9.3 mph 71 % 0.0 in 0.0 W/m2 CLR
06:10 5.6 °F 0.9 °F 1024.9 in South 5.6 mph 5.6 mph 72 % 0.0 in 0.0 W/m2 CLR
06:15 5.6 °F 0.9 °F 1024.9 in Calm     72 % 0.0 in 0.0 W/m2 CLR
06:20 5.6 °F 0.9 °F 1024.9 in South 1.6 mph 1.9 mph 72 % 0.0 in 0.0 W/m2 CLR
06:30 5.6 °F 1.1 °F 1024.9 in SSE 8.0 mph 8.0 mph 73 % 0.0 in 0.0 W/m2 CLR
06:40 5.6 °F 1.3 °F 1025.3 in SSE 7.4 mph 7.4 mph 74 % 0.0 in 0.0 W/m2 CLR
06:45 5.0 °F 0.7 °F 1025.3 in SSE 9.7 mph 9.7 mph 74 % 0.0 in 0.0 W/m2 CLR
06:50 5.0 °F 0.7 °F 1025.3 in SSE 5.6 mph 5.6 mph 74 % 0.0 in 0.0 W/m2 CLR
06:55 5.0 °F 0.7 °F 1025.3 in SSE 5.6 mph 5.6 mph 74 % 0.0 in 0.0 W/m2 CLR
07:00 5.0 °F 0.7 °F 1025.3 in SSE 5.6 mph   74 % 0.0 in 0.0 W/m2 CLR
07:05 5.0 °F 0.7 °F 1025.3 in SSE 4.8 mph 4.8 mph 74 % 0.0 in 0.0 W/m2 CLR
07:10 5.0 °F 0.7 °F 1025.6 in SSE 5.6 mph 5.6 mph 74 % 0.0 in 0.0 W/m2 CLR
07:15 5.0 °F 0.9 °F 1025.6 in South 9.3 mph 9.3 mph 75 % 0.0 in 0.0 W/m2 CLR
07:20 5.0 °F 0.9 °F 1025.6 in South 7.4 mph 7.4 mph 75 % 0.0 in 0.0 W/m2 CLR
07:25 5.0 °F 0.9 °F 1026.0 in Calm     75 % 0.0 in 0.0 W/m2 CLR
07:30 5.0 °F 0.9 °F 1026.0 in Calm     75 % 0.0 in 0.0 W/m2 CLR
07:35 5.0 °F 0.9 °F 1026.0 in Calm     75 % 0.0 in 0.0 W/m2 CLR
07:37 5.0 °F 0.9 °F 1026.0 in Calm     75 % 0.0 in 0.0 W/m2 CLR
07:42 5.0 °F 0.9 °F 1026.0 in SE 5.6 mph 5.6 mph 75 % 0.0 in 0.0 W/m2 CLR
07:47 5.0 °F 0.9 °F 1026.0 in SE 7.4 mph 7.4 mph 75 % 0.0 in 0.0 W/m2 CLR
07:52 4.4 °F 0.4 °F 1026.0 in SSE 9.3 mph 9.3 mph 75 % 0.0 in 0.0 W/m2 CLR
07:57 4.4 °F 0.4 °F 1026.0 in South 9.3 mph 9.3 mph 75 % 0.0 in 0.0 W/m2 CLR
08:02 4.4 °F 0.4 °F 1026.0 in South 7.4 mph 7.4 mph 75 % 0.0 in 5.0 W/m2 OVC
08:07 4.4 °F 0.4 °F 1026.0 in South 7.4 mph 7.4 mph 75 % 0.0 in 7.0 W/m2 BKN
08:12 4.4 °F 0.2 °F 1026.0 in South 5.6 mph 5.6 mph 74 % 0.0 in 9.0 W/m2 BKN
08:13 4.4 °F 0.2 °F 1026.0 in South 5.6 mph 5.6 mph 74 % 0.0 in 9.0 W/m2 BKN
08:18 4.4 °F 0.2 °F 1026.0 in South 6.4 mph 6.4 mph 74 % 0.0 in 12.0 W/m2 BKN
08:23 4.4 °F 0.2 °F 1026.0 in South 8.0 mph 8.0 mph 74 % 0.0 in 14.0 W/m2 BKN
08:28 4.4 °F 0.2 °F 1026.0 in SSE 9.3 mph 9.3 mph 74 % 0.0 in 18.0 W/m2 BKN
08:33 5.0 °F 0.6 °F 1026.0 in SSE 7.4 mph 7.4 mph 73 % 0.0 in 25.0 W/m2 BKN
08:38 5.0 °F 0.6 °F 1026.3 in SSE 5.6 mph 5.6 mph 73 % 0.0 in 33.0 W/m2 BKN
08:43 5.0 °F 0.6 °F 1026.3 in Calm     73 % 0.0 in 44.0 W/m2 BKN
08:48 5.0 °F 0.2 °F 1026.6 in Calm     71 % 0.0 in 58.0 W/m2 SCT
08:53 5.0 °F 0.0 °F 1026.6 in Calm     70 % 0.0 in 69.0 W/m2 FEW
09:03 5.6 °F -0.1 °F 1026.6 in Calm     67 % 0.0 in 84.0 W/m2 FEW
09:08 6.1 °F 0.2 °F 1026.6 in Calm     66 % 0.0 in 118.0 W/m2 CLR
09:13 6.7 °F 0.3 °F 1026.3 in Calm     64 % 0.0 in 109.0 W/m2 CLR
09:18 7.2 °F 0.7 °F 1026.3 in Calm     63 % 0.0 in 93.0 W/m2 CLR
09:23 8.3 °F 1.2 °F 1026.6 in Calm     61 % 0.0 in 116.0 W/m2 CLR
09:28 9.4 °F 2.3 °F 1026.6 in Calm     61 % 0.0 in 192.0 W/m2 CLR
09:33 10.0 °F 2.6 °F 1026.6 in Calm     60 % 0.0 in 209.0 W/m2 CLR
09:38 10.6 °F 3.3 °F 1026.6 in Calm     61 % 0.0 in 232.0 W/m2 CLR
09:43 10.6 °F 2.9 °F 1026.6 in Calm     59 % 0.0 in 246.0 W/m2 CLR
09:48 11.1 °F 2.9 °F 1026.6 in Calm     57 % 0.0 in 260.0 W/m2 CLR
09:53 12.2 °F 3.4 °F 1026.6 in Calm     55 % 0.0 in 274.0 W/m2 CLR
09:58 12.2 °F 3.2 °F 1026.6 in Calm     54 % 0.0 in 288.0 W/m2 CLR
10:03 12.8 °F 3.7 °F 1026.6 in Calm     54 % 0.0 in 306.0 W/m2 CLR
10:08 13.3 °F 3.1 °F 1026.6 in South 14.8 mph 14.8 mph 50 % 0.0 in 320.0 W/m2 CLR
10:13 13.9 °F 3.3 °F 1026.6 in SSW 14.5 mph 14.5 mph 49 % 0.0 in 334.0 W/m2 CLR
10:18 13.9 °F 3.1 °F 1026.3 in South 13.0 mph 13.0 mph 48 % 0.0 in 346.0 W/m2 CLR
10:23 14.4 °F 3.3 °F 1026.3 in South 13.0 mph 13.0 mph 47 % 0.0 in 364.0 W/m2 CLR
10:28 14.4 °F 3.6 °F 1026.6 in SSW 14.5 mph 14.5 mph 48 % 0.0 in 376.0 W/m2 CLR
10:33 15.0 °F 3.8 °F 1026.3 in SSE 13.0 mph 13.0 mph 47 % 0.0 in 390.0 W/m2 CLR
10:38 15.0 °F 4.1 °F 1026.3 in SSE 13.0 mph 13.0 mph 48 % 0.0 in 401.0 W/m2 CLR
10:44 15.0 °F 3.8 °F 1026.3 in South 16.7 mph 16.7 mph 47 % 0.0 in 415.0 W/m2 CLR
10:54 15.6 °F 3.9 °F 1026.3 in South 13.0 mph 13.0 mph 46 % 0.0 in 445.0 W/m2 CLR
10:59 15.6 °F 3.9 °F 1026.6 in South 18.5 mph 18.5 mph 46 % 0.0 in 457.0 W/m2 CLR
11:04 15.6 °F 3.9 °F 1026.3 in South 9.7 mph 9.7 mph 46 % 0.0 in 466.0 W/m2 CLR
11:09 15.6 °F 3.9 °F 1026.3 in SW 11.1 mph 11.1 mph 46 % 0.0 in 478.0 W/m2 CLR
11:14 16.1 °F 4.8 °F 1026.3 in SW 16.7 mph 16.7 mph 47 % 0.0 in 490.0 W/m2 CLR
11:19 16.1 °F 4.5 °F 1026.3 in SSE 14.8 mph 14.8 mph 46 % 0.0 in 503.0 W/m2 CLR
11:24 16.1 °F 4.2 °F 1026.3 in South 18.5 mph 18.5 mph 45 % 0.0 in 513.0 W/m2 CLR
11:29 16.1 °F 4.5 °F 1026.3 in South 13.0 mph 13.0 mph 46 % 0.0 in 524.0 W/m2 CLR
11:34 16.7 °F 5.0 °F 1026.3 in SW 14.8 mph 14.8 mph 46 % 0.0 in 538.0 W/m2 CLR
11:39 16.7 °F 4.7 °F 1026.3 in SW 13.0 mph 13.0 mph 45 % 0.0 in 545.0 W/m2 CLR
11:44 17.2 °F 5.2 °F 1026.3 in SW 9.3 mph 9.3 mph 45 % 0.0 in 554.0 W/m2 CLR
11:54 17.2 °F 5.2 °F 1026.3 in SSW 14.8 mph 14.8 mph 45 % 0.0 in 573.0 W/m2 CLR
11:59 17.8 °F 5.3 °F 1026.3 in Calm     44 % 0.0 in 582.0 W/m2 CLR
12:04 17.8 °F 5.7 °F 1026.3 in SW 7.4 mph 7.4 mph 45 % 0.0 in 592.0 W/m2 CLR
12:09 18.3 °F 6.2 °F 1026.3 in West 14.5 mph 14.5 mph 45 % 0.0 in 599.0 W/m2 CLR
12:14 18.3 °F 6.5 °F 1026.3 in WSW 8.0 mph 8.0 mph 46 % 0.0 in 606.0 W/m2 CLR
12:19 18.3 °F 6.2 °F 1026.3 in WSW 7.4 mph 7.4 mph 45 % 0.0 in 619.0 W/m2 CLR
12:24 18.3 °F 6.2 °F 1026.0 in WSW 5.6 mph 5.6 mph 45 % 0.0 in 626.0 W/m2 CLR
12:29 18.9 °F 6.4 °F 1026.0 in SSE 7.4 mph 7.4 mph 44 % 0.0 in 631.0 W/m2 CLR
12:34 18.9 °F 6.4 °F 1026.0 in Calm     44 % 0.0 in 636.0 W/m2 CLR
12:39 18.9 °F 6.4 °F 1026.0 in WSW 11.3 mph 11.3 mph 44 % 0.0 in 642.0 W/m2 CLR
12:44 19.4 °F 6.6 °F 1026.0 in West 5.6 mph 5.6 mph 43 % 0.0 in 649.0 W/m2 CLR
12:49 18.9 °F 6.1 °F 1026.0 in Calm     43 % 0.0 in 652.0 W/m2 CLR
12:54 18.9 °F 5.7 °F 1026.0 in Calm     42 % 0.0 in 659.0 W/m2 CLR
12:59 19.4 °F 6.2 °F 1025.6 in Calm     42 % 0.0 in 661.0 W/m2 CLR
13:04 18.9 °F 5.7 °F 1025.6 in ESE 5.6 mph 5.6 mph 42 % 0.0 in 666.0 W/m2 CLR
13:14 20.0 °F 6.3 °F 1025.6 in SW 9.7 mph 9.7 mph 41 % 0.0 in 673.0 W/m2 CLR
13:24 19.4 °F 5.8 °F 1025.6 in West 5.6 mph 5.6 mph 41 % 0.0 in 679.0 W/m2 CLR
13:29 19.4 °F 5.8 °F 1025.3 in West 3.7 mph 3.7 mph 41 % 0.0 in 682.0 W/m2 CLR
13:34 20.0 °F 6.3 °F 1025.3 in Calm   1.1 mph 41 % 0.0 in 682.0 W/m2 CLR
13:39 19.4 °F 5.5 °F 1025.3 in NNW 3.7 mph 3.7 mph 40 % 0.0 in 686.0 W/m2 CLR
13:44 19.4 °F 5.5 °F 1024.9 in Calm     40 % 0.0 in 687.0 W/m2 CLR
13:49 20.0 °F 5.6 °F 1024.9 in Calm   2.6 mph 39 % 0.0 in 686.0 W/m2 CLR
13:55 20.0 °F 5.6 °F 1024.9 in North 5.6 mph   39 % 0.0 in 687.0 W/m2 CLR
14:00 20.0 °F 5.6 °F 1024.9 in North 5.6 mph 5.6 mph 39 % 0.0 in 686.0 W/m2 CLR
14:05 20.0 °F 5.6 °F 1024.9 in Calm     39 % 0.0 in 686.0 W/m2 CLR
14:10 21.1 °F 6.6 °F 1024.9 in NNW 5.6 mph   39 % 0.0 in 684.0 W/m2 CLR
14:15 21.1 °F 6.2 °F 1024.6 in Calm     38 % 0.0 in 680.0 W/m2 CLR
14:20 21.7 °F 6.7 °F 1024.6 in ESE 5.6 mph   38 % 0.0 in 680.0 W/m2 CLR
14:25 21.7 °F 6.7 °F 1024.6 in Calm     38 % 0.0 in 679.0 W/m2 CLR
14:30 21.1 °F 6.6 °F 1024.3 in Calm     39 % 0.0 in 673.0 W/m2 CLR
14:35 21.7 °F 6.3 °F 1024.3 in Calm     37 % 0.0 in 670.0 W/m2 CLR
14:40 21.7 °F 6.3 °F 1024.3 in Calm     37 % 0.0 in 668.0 W/m2 CLR
14:45 21.7 °F 6.3 °F 1024.3 in NNW 5.6 mph 5.6 mph 37 % 0.0 in 663.0 W/m2 CLR
14:50 21.7 °F 6.3 °F 1024.3 in WNW 1.9 mph   37 % 0.0 in 657.0 W/m2 CLR
14:55 21.7 °F 6.3 °F 1024.3 in WNW 5.6 mph 5.6 mph 37 % 0.0 in 650.0 W/m2 CLR
15:00 21.7 °F 6.3 °F 1023.9 in Calm   0.8 mph 37 % 0.0 in 643.0 W/m2 CLR
15:05 21.7 °F 6.3 °F 1023.9 in NNW 17.7 mph 17.7 mph 37 % 0.0 in 640.0 W/m2 CLR
15:10 21.7 °F 6.3 °F 1023.9 in North 7.4 mph 7.4 mph 37 % 0.0 in 633.0 W/m2 CLR
15:15 21.7 °F 6.7 °F 1023.9 in North 5.6 mph 5.6 mph 38 % 0.0 in 624.0 W/m2 CLR
15:20 21.7 °F 6.3 °F 1023.9 in NW 9.7 mph 9.7 mph 37 % 0.0 in 619.0 W/m2 CLR
15:25 21.7 °F 6.3 °F 1023.9 in NW 7.4 mph 7.4 mph 37 % 0.0 in 610.0 W/m2 CLR
15:30 22.2 °F 6.4 °F 1023.9 in NNW 1.9 mph   36 % 0.0 in 603.0 W/m2 CLR
15:35 21.7 °F 5.9 °F 1023.6 in WNW 5.6 mph   36 % 0.0 in 594.0 W/m2 CLR
15:40 22.2 °F 6.4 °F 1023.6 in NW 4.8 mph 4.8 mph 36 % 0.0 in 585.0 W/m2 CLR
15:45 22.2 °F 6.8 °F 1023.6 in NNW 9.7 mph 9.7 mph 37 % 0.0 in 578.0 W/m2 CLR
15:50 22.2 °F 6.4 °F 1023.6 in WNW 11.1 mph 11.1 mph 36 % 0.0 in 568.0 W/m2 CLR
15:55 22.2 °F 6.8 °F 1023.6 in NW 7.4 mph 8.5 mph 37 % 0.0 in 557.0 W/m2 CLR
16:00 22.2 °F 6.4 °F 1023.2 in NW 1.9 mph   36 % 0.0 in 547.0 W/m2 CLR
16:05 22.2 °F 6.4 °F 1023.2 in NW 11.1 mph 11.1 mph 36 % 0.0 in 536.0 W/m2 CLR
16:10 22.2 °F 6.8 °F 1023.2 in WNW 5.6 mph 5.6 mph 37 % 0.0 in 527.0 W/m2 CLR
16:15 22.2 °F 6.8 °F 1023.2 in NW 9.7 mph 9.7 mph 37 % 0.0 in 517.0 W/m2 CLR
16:20 22.2 °F 6.4 °F 1023.2 in NW 14.8 mph 14.8 mph 36 % 0.0 in 504.0 W/m2 CLR
16:25 22.8 °F 7.3 °F 1022.9 in Calm     37 % 0.0 in 492.0 W/m2 CLR
16:35 22.2 °F 6.8 °F 1022.9 in NW 14.5 mph 14.5 mph 37 % 0.0 in 469.0 W/m2 CLR
16:40 22.2 °F 7.2 °F 1022.9 in WNW 7.4 mph 7.4 mph 38 % 0.0 in 457.0 W/m2 CLR
16:45 22.8 °F 8.1 °F 1022.9 in Calm     39 % 0.0 in 441.0 W/m2 CLR
16:50 22.8 °F 7.7 °F 1022.9 in NW 14.8 mph 14.8 mph 38 % 0.0 in 431.0 W/m2 CLR
16:55 22.8 °F 7.7 °F 1022.9 in NW 16.7 mph 16.7 mph 38 % 0.0 in 417.0 W/m2 CLR
16:56 22.8 °F 7.7 °F 1022.9 in NW 18.5 mph 18.5 mph 38 % 0.0 in 413.0 W/m2 CLR
17:01 22.8 °F 8.8 °F 1022.9 in NNW 7.4 mph 7.4 mph 41 % 0.0 in 399.0 W/m2 CLR
17:06 22.2 °F 9.4 °F 1022.6 in North 13.0 mph 13.0 mph 44 % 0.0 in 383.0 W/m2 CLR
17:11 22.2 °F 10.7 °F 1022.9 in NE 13.0 mph 13.0 mph 48 % 0.0 in 369.0 W/m2 CLR
17:16 22.2 °F 11.3 °F 1022.9 in NNW 13.0 mph 13.0 mph 50 % 0.0 in 352.0 W/m2 CLR
17:21 22.2 °F 11.3 °F 1022.9 in NNW 13.0 mph 13.0 mph 50 % 0.0 in 338.0 W/m2 CLR
17:26 22.2 °F 11.3 °F 1022.9 in NNE 7.4 mph 7.4 mph 50 % 0.0 in 323.0 W/m2 CLR
17:31 22.2 °F 11.6 °F 1022.9 in NNE 7.4 mph 7.4 mph 51 % 0.0 in 304.0 W/m2 CLR
17:36 22.2 °F 11.6 °F 1022.6 in Calm     51 % 0.0 in 292.0 W/m2 CLR
17:41 22.2 °F 11.6 °F 1022.6 in North 9.3 mph 9.3 mph 51 % 0.0 in 276.0 W/m2 CLR
17:46 22.2 °F 11.6 °F 1022.6 in NNE 5.6 mph 5.6 mph 51 % 0.0 in 262.0 W/m2 CLR
17:51 21.7 °F 11.4 °F 1022.6 in ENE 9.3 mph 9.3 mph 52 % 0.0 in 244.0 W/m2 CLR
17:56 21.7 °F 11.4 °F 1022.6 in NE 14.5 mph 14.5 mph 52 % 0.0 in 227.0 W/m2 CLR
18:01 21.7 °F 11.7 °F 1022.6 in NE 9.3 mph 9.3 mph 53 % 0.0 in 209.0 W/m2 CLR
18:06 21.1 °F 11.7 °F 1022.6 in NE 6.4 mph 6.4 mph 55 % 0.0 in 193.0 W/m2 CLR
18:11 21.1 °F 11.7 °F 1022.6 in North 7.4 mph 7.4 mph 55 % 0.0 in 172.0 W/m2 CLR
18:16 21.1 °F 11.7 °F 1022.6 in North 5.6 mph 5.6 mph 55 % 0.0 in 155.0 W/m2 CLR
18:21 21.1 °F 12.0 °F 1022.6 in NNE 16.7 mph 16.7 mph 56 % 0.0 in 139.0 W/m2 CLR
18:26 20.6 °F 11.4 °F 1022.6 in NNE 9.3 mph 9.3 mph 56 % 0.0 in 123.0 W/m2 CLR
18:31 20.6 °F 11.7 °F 1022.6 in NNE 8.0 mph 8.0 mph 57 % 0.0 in 109.0 W/m2 CLR
18:36 20.6 °F 11.7 °F 1022.9 in NE 6.4 mph 6.4 mph 57 % 0.0 in 91.0 W/m2 CLR
18:41 20.6 °F 11.7 °F 1022.9 in NNE 8.0 mph 8.0 mph 57 % 0.0 in 76.0 W/m2 FEW
18:46 20.0 °F 11.5 °F 1022.6 in NNE 7.4 mph 7.4 mph 58 % 0.0 in 60.0 W/m2 SCT
18:51 20.0 °F 11.5 °F 1022.6 in North 7.4 mph 7.4 mph 58 % 0.0 in 51.0 W/m2 SCT
18:56 20.0 °F 11.5 °F 1022.9 in Calm     58 % 0.0 in 40.0 W/m2 BKN
19:01 19.4 °F 10.9 °F 1022.9 in Calm     58 % 0.0 in 30.0 W/m2 BKN
19:06 19.4 °F 11.2 °F 1022.9 in NNE 7.4 mph 7.4 mph 59 % 0.0 in 23.0 W/m2 BKN
19:11 18.9 °F 10.9 °F 1022.9 in Calm     60 % 0.0 in 18.0 W/m2 BKN
19:16 18.9 °F 10.9 °F 1022.9 in NE 3.7 mph 3.7 mph 60 % 0.0 in 14.0 W/m2 BKN
19:21 18.9 °F 10.9 °F 1022.9 in NE 7.4 mph 7.4 mph 60 % 0.0 in 11.0 W/m2 BKN
19:26 18.3 °F 10.7 °F 1022.9 in NNE 6.4 mph 6.4 mph 61 % 0.0 in 7.0 W/m2 BKN
19:31 17.8 °F 10.2 °F 1022.9 in ENE 12.9 mph 12.9 mph 61 % 0.0 in 5.0 W/m2 OVC
19:36 17.8 °F 9.9 °F 1022.9 in East 22.2 mph 22.2 mph 60 % 0.0 in 0.0 W/m2 OVC
19:41 18.3 °F 10.4 °F 1022.9 in SE 20.4 mph 20.4 mph 60 % 0.0 in 0.0 W/m2 OVC
19:46 18.9 °F 10.9 °F 1022.9 in ESE 22.5 mph 22.5 mph 60 % 0.0 in 0.0 W/m2 CLR
19:51 18.9 °F 11.2 °F 1022.9 in SE 18.5 mph 18.5 mph 61 % 0.0 in 0.0 W/m2 CLR
19:56 18.9 °F 11.2 °F 1022.9 in SSE 22.2 mph 22.2 mph 61 % 0.0 in 0.0 W/m2 CLR
20:01 18.9 °F 11.4 °F 1023.2 in South 18.5 mph 18.5 mph 62 % 0.0 in 0.0 W/m2 CLR
20:06 18.9 °F 11.4 °F 1023.2 in South 14.8 mph 14.8 mph 62 % 0.0 in 0.0 W/m2 CLR
20:11 18.3 °F 11.2 °F 1023.2 in SE 7.4 mph 7.4 mph 63 % 0.0 in 0.0 W/m2 CLR
20:16 18.3 °F 11.2 °F 1023.2 in SE 4.8 mph 4.8 mph 63 % 0.0 in 0.0 W/m2 CLR
20:21 17.8 °F 10.9 °F 1023.2 in SE 13.0 mph 13.0 mph 64 % 0.0 in 0.0 W/m2 CLR
20:26 17.8 °F 10.9 °F 1023.2 in SSE 11.1 mph 11.1 mph 64 % 0.0 in 0.0 W/m2 CLR
20:31 17.2 °F 10.3 °F 1023.2 in SSE 1.9 mph 1.9 mph 64 % 0.0 in 0.0 W/m2 CLR
20:37 16.7 °F 10.1 °F 1023.2 in SSE 6.4 mph 6.4 mph 65 % 0.0 in 0.0 W/m2 CLR
20:42 16.1 °F 9.5 °F 1023.6 in SSE 5.6 mph 5.6 mph 65 % 0.0 in 0.0 W/m2 CLR
20:47 15.6 °F 9.2 °F 1023.6 in Calm     66 % 0.0 in 0.0 W/m2 CLR
20:52 15.0 °F 8.7 °F 1023.6 in Calm   0.5 mph 66 % 0.0 in 0.0 W/m2 CLR
20:57 14.4 °F 8.2 °F 1023.6 in SSE 7.4 mph   66 % 0.0 in 0.0 W/m2 CLR
21:02 14.4 °F 8.4 °F 1023.6 in Calm     67 % 0.0 in 0.0 W/m2 CLR
21:07 13.9 °F 7.8 °F 1023.6 in Calm     67 % 0.0 in 0.0 W/m2 CLR
21:12 13.3 °F 7.3 °F 1023.6 in Calm     67 % 0.0 in 0.0 W/m2 CLR
21:17 13.3 °F 7.6 °F 1023.6 in Calm     68 % 0.0 in 0.0 W/m2 CLR
21:22 13.3 °F 7.3 °F 1023.6 in Calm     67 % 0.0 in 0.0 W/m2 CLR
21:27 12.8 °F 6.8 °F 1023.6 in Calm     67 % 0.0 in 0.0 W/m2 CLR
21:32 12.8 °F 7.2 °F 1023.6 in Calm     69 % 0.0 in 0.0 W/m2 CLR
21:37 12.8 °F 7.2 °F 1023.6 in Calm     69 % 0.0 in 0.0 W/m2 CLR
21:42 12.8 °F 7.4 °F 1023.6 in Calm     70 % 0.0 in 0.0 W/m2 CLR
21:47 12.8 °F 7.4 °F 1023.6 in Calm     70 % 0.0 in 0.0 W/m2 CLR
21:52 12.8 °F 7.7 °F 1023.6 in Calm     71 % 0.0 in 0.0 W/m2 CLR
21:57 12.8 °F 7.8 °F 1023.9 in Calm     72 % 0.0 in 0.0 W/m2 CLR
22:02 12.8 °F 7.8 °F 1023.9 in Calm     72 % 0.0 in 0.0 W/m2 CLR
22:07 12.2 °F 7.5 °F 1023.9 in Calm     73 % 0.0 in 0.0 W/m2 CLR
22:12 12.2 °F 7.3 °F 1023.9 in Calm     72 % 0.0 in 0.0 W/m2 CLR
22:17 12.2 °F 7.5 °F 1023.9 in Calm     73 % 0.0 in 0.0 W/m2 CLR
22:22 11.7 °F 7.0 °F 1023.9 in Calm     73 % 0.0 in 0.0 W/m2 CLR
22:27 11.7 °F 7.2 °F 1023.9 in Calm     74 % 0.0 in 0.0 W/m2 CLR
22:32 11.7 °F 7.2 °F 1023.9 in Calm     74 % 0.0 in 0.0 W/m2 CLR
22:37 11.7 °F 7.4 °F 1023.9 in Calm     75 % 0.0 in 0.0 W/m2 CLR
22:42 11.7 °F 7.6 °F 1023.9 in Calm     76 % 0.0 in 0.0 W/m2 CLR
22:47 11.7 °F 7.8 °F 1023.9 in Calm     77 % 0.0 in 0.0 W/m2 CLR
22:52 11.7 °F 7.8 °F 1024.3 in Calm     77 % 0.0 in 0.0 W/m2 CLR
22:57 11.7 °F 7.8 °F 1024.3 in Calm     77 % 0.0 in 0.0 W/m2 CLR
23:02 11.7 °F 7.8 °F 1024.3 in Calm     77 % 0.0 in 0.0 W/m2 CLR
23:07 11.1 °F 7.2 °F 1024.3 in Calm     77 % 0.0 in 0.0 W/m2 CLR
23:12 11.1 °F 7.2 °F 1024.3 in Calm     77 % 0.0 in 0.0 W/m2 CLR
23:17 11.1 °F 7.4 °F 1024.3 in Calm     78 % 0.0 in 0.0 W/m2 CLR
23:22 11.1 °F 7.6 °F 1024.3 in Calm     79 % 0.0 in 0.0 W/m2 CLR
23:27 11.1 °F 7.9 °F 1024.3 in Calm     81 % 0.0 in 0.0 W/m2 CLR
23:32 11.1 °F 7.9 °F 1024.3 in Calm     81 % 0.0 in 0.0 W/m2 CLR
23:37 10.6 °F 7.2 °F 1024.3 in Calm     80 % 0.0 in 0.0 W/m2 CLR
23:42 10.6 °F 7.2 °F 1024.3 in Calm     80 % 0.0 in 0.0 W/m2 CLR
23:47 10.6 °F 7.1 °F 1024.3 in Calm     79 % 0.0 in 0.0 W/m2 CLR
23:52 10.0 °F 6.7 °F 1024.6 in Calm     80 % 0.0 in 0.0 W/m2 CLR
23:57 10.0 °F 6.7 °F 1024.6 in Calm     80 % 0.0 in 0.0 W/m2 CLR
Lo Temps de Massalio
Compliments of Weather Underground - 1.25 mb